Time;durP1;ratioP1;P1;durP2;ratioP2;P2;SDS_P1;SDS_P2;PMS_P1;PMS_P2;Temp;Humidity;BMP_temperature;BMP_pressure;BME280_temperature;BME280_humidity;BME280_pressure;Samples;Min_cycle;Max_cycle;Signal;HPM_P1;HPM_P2
2022/03/16 00:00:09;;;;;;;21.40;15.90;;;;;;;;;;5073610;28;20438;-53
2022/03/16 00:02:35;;;;;;;21.83;15.80;;;;;;;;;;5073713;28;20444;-53
2022/03/16 00:05:01;;;;;;;25.20;16.03;;;;;;;;;;5073512;28;20517;-52
2022/03/16 00:07:27;;;;;;;26.23;18.33;;;;;;;;;;5073497;28;20253;-53
2022/03/16 00:09:53;;;;;;;25.70;18.30;;;;;;;;;;5073405;28;20431;-53
2022/03/16 00:12:19;;;;;;;24.13;17.57;;;;;;;;;;5073272;28;20224;-54
2022/03/16 00:14:46;;;;;;;20.07;16.47;;;;;;;;;;5073423;28;20260;-52
2022/03/16 00:17:12;;;;;;;20.33;16.47;;;;;;;;;;5073234;28;20434;-53
2022/03/16 00:19:40;;;;;;;21.77;16.57;;;;;;;;;;5073332;28;20481;-53
2022/03/16 00:22:06;;;;;;;21.13;17.00;;;;;;;;;;5072935;28;20469;-53
2022/03/16 00:24:32;;;;;;;22.10;15.20;;;;;;;;;;5072890;28;20951;-53
2022/03/16 00:26:58;;;;;;;22.83;17.00;;;;;;;;;;5073096;28;20496;-53
2022/03/16 00:29:24;;;;;;;24.27;16.50;;;;;;;;;;5073020;28;20441;-53
2022/03/16 00:31:52;;;;;;;21.87;16.80;;;;;;;;;;5072826;28;20617;-53
2022/03/16 00:34:18;;;;;;;21.97;16.37;;;;;;;;;;5072778;28;20446;-53
2022/03/16 00:36:44;;;;;;;22.50;17.47;;;;;;;;;;5073058;28;20430;-53
2022/03/16 00:39:10;;;;;;;23.47;16.70;;;;;;;;;;5072580;28;20473;-53
2022/03/16 00:41:37;;;;;;;20.63;15.43;;;;;;;;;;5072805;28;20249;-53
2022/03/16 00:44:03;;;;;;;25.67;16.47;;;;;;;;;;5072432;28;20203;-53
2022/03/16 00:46:29;;;;;;;20.73;15.87;;;;;;;;;;5072831;28;20476;-53
2022/03/16 00:48:56;;;;;;;18.70;15.27;;;;;;;;;;5072549;28;20441;-53
2022/03/16 00:51:22;;;;;;;21.77;16.33;;;;;;;;;;5070530;28;20238;-53
2022/03/16 00:53:52;;;;;;;19.43;15.10;;;;;;;;;;5072216;28;20924;-52
2022/03/16 00:56:17;;;;;;;23.00;16.30;;;;;;;;;;5072618;28;20457;-52
2022/03/16 00:58:43;;;;;;;19.33;15.67;;;;;;;;;;5072411;28;20520;-53
2022/03/16 01:01:09;;;;;;;18.23;14.57;;;;;;;;;;5072415;28;20227;-52
2022/03/16 01:03:40;;;;;;;18.17;13.97;;;;;;;;;;5072305;28;20595;-52
2022/03/16 01:06:12;;;;;;;18.13;13.37;;;;;;;;;;5070572;28;20620;-53
2022/03/16 01:08:38;;;;;;;19.93;14.80;;;;;;;;;;5072350;28;20434;-52
2022/03/16 01:11:04;;;;;;;21.40;15.20;;;;;;;;;;5072298;28;20469;-52
2022/03/16 01:13:30;;;;;;;22.53;16.53;;;;;;;;;;5072245;28;20504;-52
2022/03/16 01:15:56;;;;;;;18.50;15.10;;;;;;;;;;5072307;28;20200;-51
2022/03/16 01:18:25;;;;;;;19.87;15.53;;;;;;;;;;5072076;28;20625;-53
2022/03/16 01:20:51;;;;;;;22.50;16.77;;;;;;;;;;5072286;28;20307;-53
2022/03/16 01:23:18;;;;;;;21.63;16.43;;;;;;;;;;5071513;28;20493;-52
2022/03/16 01:25:44;;;;;;;20.43;15.43;;;;;;;;;;5072224;28;20202;-52
2022/03/16 01:28:10;;;;;;;20.53;14.50;;;;;;;;;;5071852;28;20806;-52
2022/03/16 01:30:36;;;;;;;22.73;14.90;;;;;;;;;;5071887;28;20200;-54
2022/03/16 01:33:02;;;;;;;23.50;15.17;;;;;;;;;;5071894;28;20446;-52
2022/03/16 01:35:28;;;;;;;24.00;15.17;;;;;;;;;;5071701;28;20526;-53
2022/03/16 01:37:54;;;;;;;22.47;16.00;;;;;;;;;;5071733;28;20441;-53
2022/03/16 01:40:22;;;;;;;21.20;15.87;;;;;;;;;;5071729;28;20879;-53
2022/03/16 01:42:48;;;;;;;20.10;15.27;;;;;;;;;;5071375;28;20207;-53
2022/03/16 01:45:14;;;;;;;21.20;15.90;;;;;;;;;;5071941;28;20925;-53
2022/03/16 01:47:40;;;;;;;24.77;16.30;;;;;;;;;;5071644;28;20200;-54
2022/03/16 01:50:06;;;;;;;19.67;16.00;;;;;;;;;;5071753;28;20434;-53
2022/03/16 01:52:32;;;;;;;20.07;15.30;;;;;;;;;;5071942;28;20678;-53
2022/03/16 01:55:02;;;;;;;24.77;15.60;;;;;;;;;;5071794;28;20513;-53
2022/03/16 01:57:30;;;;;;;20.57;15.73;;;;;;;;;;5071795;28;20434;-53
2022/03/16 01:59:56;;;;;;;20.93;15.67;;;;;;;;;;5071558;28;20497;-54
2022/03/16 02:02:22;;;;;;;17.57;14.97;;;;;;;;;;5071608;28;20458;-54
2022/03/16 02:04:48;;;;;;;24.03;15.00;;;;;;;;;;5071715;28;20495;-54
2022/03/16 02:07:14;;;;;;;23.67;15.47;;;;;;;;;;5071670;28;20504;-54
2022/03/16 02:09:40;;;;;;;21.03;14.40;;;;;;;;;;5071672;28;20520;-54
2022/03/16 02:12:07;;;;;;;19.07;13.47;;;;;;;;;;5071575;28;20454;-54
2022/03/16 02:14:34;;;;;;;20.53;14.67;;;;;;;;;;5071641;28;20564;-54
2022/03/16 02:17:00;;;;;;;20.20;14.90;;;;;;;;;;5071479;28;20453;-53
2022/03/16 02:19:26;;;;;;;16.00;13.30;;;;;;;;;;5071350;28;20473;-54
2022/03/16 02:21:56;;;;;;;19.03;14.20;;;;;;;;;;5071362;28;20688;-53
2022/03/16 02:24:23;;;;;;;18.60;14.63;;;;;;;;;;5070775;28;20481;-54
2022/03/16 02:26:49;;;;;;;19.60;13.80;;;;;;;;;;5071399;28;20527;-54
2022/03/16 02:29:15;;;;;;;17.33;13.40;;;;;;;;;;5071397;28;20434;-54
2022/03/16 02:31:42;;;;;;;21.63;14.80;;;;;;;;;;5071788;28;20434;-54
2022/03/16 02:34:08;;;;;;;18.17;13.10;;;;;;;;;;5071286;28;20784;-54
2022/03/16 02:36:34;;;;;;;17.67;13.70;;;;;;;;;;5071375;28;20488;-54
2022/03/16 02:39:00;;;;;;;17.53;12.80;;;;;;;;;;5071146;28;20478;-54
2022/03/16 02:41:27;;;;;;;15.73;13.03;;;;;;;;;;5071150;28;20436;-53
2022/03/16 02:43:53;;;;;;;16.70;13.07;;;;;;;;;;5071270;28;20565;-53
2022/03/16 02:46:19;;;;;;;15.57;13.63;;;;;;;;;;5071349;28;20495;-53
2022/03/16 02:48:45;;;;;;;17.43;13.27;;;;;;;;;;5071426;28;20207;-53
2022/03/16 02:51:11;;;;;;;18.47;14.17;;;;;;;;;;5071071;28;20275;-52
2022/03/16 02:53:37;;;;;;;19.60;14.20;;;;;;;;;;5071029;28;21016;-53
2022/03/16 02:56:03;;;;;;;19.23;14.70;;;;;;;;;;5072935;28;20195;-55
2022/03/16 02:58:34;;;;;;;19.63;14.57;;;;;;;;;;5074730;28;20270;-53
2022/03/16 03:01:00;;;;;;;20.23;14.83;;;;;;;;;;5074540;28;20804;-52
2022/03/16 03:03:26;;;;;;;21.53;14.90;;;;;;;;;;5074657;28;20446;-53
2022/03/16 03:05:52;;;;;;;19.57;15.10;;;;;;;;;;5074436;28;20460;-53
2022/03/16 03:08:18;;;;;;;20.63;14.33;;;;;;;;;;5074382;28;20279;-53
2022/03/16 03:10:44;;;;;;;19.17;13.90;;;;;;;;;;5074541;28;20525;-53
2022/03/16 03:13:11;;;;;;;21.37;15.03;;;;;;;;;;5074338;28;20618;-53
2022/03/16 03:15:39;;;;;;;20.33;14.80;;;;;;;;;;5074466;28;20441;-53
2022/03/16 03:18:05;;;;;;;22.43;14.83;;;;;;;;;;5074246;28;20452;-53
2022/03/16 03:20:31;;;;;;;20.67;14.43;;;;;;;;;;5074272;28;20433;-53
2022/03/16 03:22:57;;;;;;;19.97;14.20;;;;;;;;;;5074003;28;20207;-53
2022/03/16 03:25:23;;;;;;;19.83;15.20;;;;;;;;;;5074022;28;20849;-53
2022/03/16 03:27:49;;;;;;;19.67;14.80;;;;;;;;;;5074025;28;20840;-54
2022/03/16 03:30:15;;;;;;;20.17;14.83;;;;;;;;;;5074097;28;20469;-53
2022/03/16 03:32:42;;;;;;;23.67;16.57;;;;;;;;;;5074163;28;20195;-52
2022/03/16 03:35:08;;;;;;;23.70;16.53;;;;;;;;;;5073938;28;20499;-52
2022/03/16 03:37:36;;;;;;;22.30;16.03;;;;;;;;;;5073910;28;20438;-53
2022/03/16 03:40:02;;;;;;;18.27;14.57;;;;;;;;;;5073768;28;20473;-53
2022/03/16 03:42:28;;;;;;;22.40;15.57;;;;;;;;;;5074101;28;20464;-54
2022/03/16 03:44:54;;;;;;;24.03;15.10;;;;;;;;;;5073643;28;20445;-54
2022/03/16 03:47:20;;;;;;;17.87;13.67;;;;;;;;;;5073510;28;20804;-54
2022/03/16 03:49:47;;;;;;;19.20;13.73;;;;;;;;;;5073786;28;20218;-52
2022/03/16 03:52:13;;;;;;;18.60;14.77;;;;;;;;;;5073634;28;20207;-53
2022/03/16 03:54:40;;;;;;;18.57;13.97;;;;;;;;;;5073814;28;20466;-53
2022/03/16 03:57:06;;;;;;;20.00;13.60;;;;;;;;;;5073661;28;20464;-53
2022/03/16 03:59:32;;;;;;;19.10;14.13;;;;;;;;;;5073466;28;20478;-52
2022/03/16 04:01:58;;;;;;;18.17;13.53;;;;;;;;;;5073642;28;20444;-53
2022/03/16 04:04:24;;;;;;;17.77;13.73;;;;;;;;;;5073024;28;20529;-53
2022/03/16 04:06:52;;;;;;;19.93;13.80;;;;;;;;;;5072808;28;20244;-53
2022/03/16 04:09:18;;;;;;;19.13;14.23;;;;;;;;;;5073251;28;20246;-53
2022/03/16 04:11:44;;;;;;;16.30;13.30;;;;;;;;;;5073302;28;20546;-52
2022/03/16 04:14:10;;;;;;;15.47;12.30;;;;;;;;;;5073112;28;20434;-53
2022/03/16 04:16:36;;;;;;;15.77;12.17;;;;;;;;;;5073106;28;20521;-53
2022/03/16 04:19:02;;;;;;;13.87;11.73;;;;;;;;;;5072965;28;20466;-53
2022/03/16 04:21:28;;;;;;;14.83;12.10;;;;;;;;;;5073091;28;20433;-53
2022/03/16 04:23:56;;;;;;;13.73;11.40;;;;;;;;;;5072658;28;20485;-53
2022/03/16 04:26:22;;;;;;;11.67;10.50;;;;;;;;;;5072848;28;20441;-53
2022/03/16 04:28:48;;;;;;;11.90;9.80;;;;;;;;;;5072960;28;20437;-53
2022/03/16 04:31:14;;;;;;;11.93;10.47;;;;;;;;;;5072894;28;20437;-53
2022/03/16 04:33:40;;;;;;;13.87;10.60;;;;;;;;;;5073012;28;20433;-53
2022/03/16 04:36:07;;;;;;;10.87;9.30;;;;;;;;;;5072866;28;20962;-53
2022/03/16 04:38:34;;;;;;;9.90;8.57;;;;;;;;;;5072578;28;20249;-53
2022/03/16 04:41:02;;;;;;;12.63;10.13;;;;;;;;;;5072925;28;20520;-53
2022/03/16 04:43:28;;;;;;;8.20;7.40;;;;;;;;;;5072597;28;20952;-53
2022/03/16 04:45:54;;;;;;;7.73;6.87;;;;;;;;;;5072656;28;20464;-53
2022/03/16 04:48:20;;;;;;;8.70;7.07;;;;;;;;;;5072441;28;20208;-53
2022/03/16 04:50:45;;;;;;;8.23;7.07;;;;;;;;;;5072639;28;20211;-53
2022/03/16 04:53:11;;;;;;;7.97;7.00;;;;;;;;;;5072421;28;20738;-54
2022/03/16 04:55:37;;;;;;;8.63;7.73;;;;;;;;;;5072142;28;20204;-53
2022/03/16 04:58:05;;;;;;;10.47;8.17;;;;;;;;;;5072108;28;20225;-54
2022/03/16 05:00:31;;;;;;;9.40;8.30;;;;;;;;;;5072221;28;20285;-53
2022/03/16 05:02:57;;;;;;;9.30;7.77;;;;;;;;;;5072487;28;20441;-54
2022/03/16 05:05:23;;;;;;;14.00;8.57;;;;;;;;;;5072148;28;20230;-53
2022/03/16 05:07:49;;;;;;;10.67;8.83;;;;;;;;;;5072085;28;20195;-54
2022/03/16 05:10:16;;;;;;;13.37;9.80;;;;;;;;;;5072467;28;21015;-53
2022/03/16 05:12:43;;;;;;;9.17;8.03;;;;;;;;;;5072292;28;20200;-54
2022/03/16 05:15:13;;;;;;;9.40;8.07;;;;;;;;;;5072119;28;20433;-54
2022/03/16 05:17:40;;;;;;;9.40;8.40;;;;;;;;;;5071561;28;20810;-51
2022/03/16 05:20:07;;;;;;;10.27;9.17;;;;;;;;;;5071812;28;21152;-51
2022/03/16 05:22:33;;;;;;;10.97;8.93;;;;;;;;;;5072024;28;20537;-53
2022/03/16 05:24:59;;;;;;;11.87;9.57;;;;;;;;;;5071896;28;20481;-53
2022/03/16 05:27:25;;;;;;;10.63;9.10;;;;;;;;;;5071896;28;20446;-53
2022/03/16 05:29:50;;;;;;;12.03;9.50;;;;;;;;;;5072060;28;20704;-54
2022/03/16 05:32:18;;;;;;;9.90;8.90;;;;;;;;;;5071903;28;20199;-53
2022/03/16 05:34:44;;;;;;;10.53;9.10;;;;;;;;;;5072004;28;20294;-54
2022/03/16 05:37:10;;;;;;;12.77;9.20;;;;;;;;;;5071674;28;20525;-53
2022/03/16 05:39:36;;;;;;;13.67;9.53;;;;;;;;;;5072079;28;20223;-53
2022/03/16 05:42:02;;;;;;;12.40;8.77;;;;;;;;;;5071812;28;20705;-52
2022/03/16 05:44:28;;;;;;;10.37;9.20;;;;;;;;;;5071755;28;20206;-52
2022/03/16 05:46:54;;;;;;;13.37;10.47;;;;;;;;;;5071688;28;20433;-51
2022/03/16 05:49:25;;;;;;;12.47;9.97;;;;;;;;;;5071478;28;20437;-51
2022/03/16 05:51:51;;;;;;;12.03;10.37;;;;;;;;;;5071664;28;20444;-51
2022/03/16 05:54:17;;;;;;;11.63;9.57;;;;;;;;;;5071612;28;20453;-52
2022/03/16 05:56:43;;;;;;;11.30;9.27;;;;;;;;;;5071774;28;20422;-52
2022/03/16 05:59:09;;;;;;;9.67;8.67;;;;;;;;;;5071552;28;20759;-51
2022/03/16 06:01:35;;;;;;;10.93;8.73;;;;;;;;;;5071598;28;20237;-52
2022/03/16 06:04:01;;;;;;;9.70;7.80;;;;;;;;;;5071704;28;20717;-52
2022/03/16 06:06:29;;;;;;;9.40;8.10;;;;;;;;;;5071400;28;20441;-52
2022/03/16 06:08:55;;;;;;;8.43;7.40;;;;;;;;;;5071422;28;20484;-52
2022/03/16 06:11:21;;;;;;;7.53;6.83;;;;;;;;;;5071309;28;20454;-51
2022/03/16 06:13:47;;;;;;;8.07;7.27;;;;;;;;;;5071433;28;20465;-52
2022/03/16 06:16:14;;;;;;;7.70;7.00;;;;;;;;;;5071239;28;20551;-52
2022/03/16 06:18:39;;;;;;;8.33;7.53;;;;;;;;;;5071146;28;20470;-52
2022/03/16 06:21:05;;;;;;;7.77;6.97;;;;;;;;;;5071031;28;20438;-53
2022/03/16 06:23:33;;;;;;;7.80;7.00;;;;;;;;;;5071184;28;20709;-53
2022/03/16 06:26:01;;;;;;;9.37;7.30;;;;;;;;;;5071567;28;20456;-53
2022/03/16 06:28:27;;;;;;;9.60;8.03;;;;;;;;;;5071339;28;21000;-53
2022/03/16 06:30:53;;;;;;;12.33;7.63;;;;;;;;;;5074696;28;20426;-53
2022/03/16 06:33:19;;;;;;;9.30;8.40;;;;;;;;;;5074889;28;20440;-52
2022/03/16 06:35:45;;;;;;;10.77;8.87;;;;;;;;;;5074991;28;20862;-51
2022/03/16 06:38:11;;;;;;;11.43;9.57;;;;;;;;;;5074830;28;20426;-53
2022/03/16 06:40:38;;;;;;;10.93;9.43;;;;;;;;;;5074813;28;20477;-52
2022/03/16 06:43:04;;;;;;;10.23;9.23;;;;;;;;;;5074820;28;20440;-52
2022/03/16 06:45:30;;;;;;;10.77;9.60;;;;;;;;;;5074972;28;20850;-52
2022/03/16 06:47:57;;;;;;;11.20;10.10;;;;;;;;;;5074931;28;20680;-52
2022/03/16 06:50:24;;;;;;;11.13;9.97;;;;;;;;;;5074541;28;20448;-53
2022/03/16 06:52:50;;;;;;;13.17;11.10;;;;;;;;;;5074686;28;20438;-53
2022/03/16 06:55:16;;;;;;;13.63;11.27;;;;;;;;;;5074723;28;20855;-52
2022/03/16 06:57:43;;;;;;;14.57;13.03;;;;;;;;;;5074806;28;20433;-52
2022/03/16 07:00:10;;;;;;;17.40;14.40;;;;;;;;;;5074387;28;20848;-52
2022/03/16 07:02:53;;;;;;;16.67;13.27;;;;;;;;;;5074413;28;20466;-53
2022/03/16 07:05:19;;;;;;;17.90;14.67;;;;;;;;;;5074378;28;20446;-52
2022/03/16 07:07:45;;;;;;;19.90;14.20;;;;;;;;;;5074708;28;20827;-52
2022/03/16 07:10:11;;;;;;;17.37;14.03;;;;;;;;;;5074390;28;20441;-52
2022/03/16 07:12:37;;;;;;;19.40;14.83;;;;;;;;;;5074431;28;20200;-52
2022/03/16 07:15:06;;;;;;;18.27;14.77;;;;;;;;;;5074235;28;20854;-51
2022/03/16 07:17:32;;;;;;;20.90;15.23;;;;;;;;;;5074178;28;20257;-52
2022/03/16 07:19:57;;;;;;;20.07;16.30;;;;;;;;;;5074142;28;20513;-52
2022/03/16 07:22:23;;;;;;;22.83;17.07;;;;;;;;;;5073762;28;20196;-52
2022/03/16 07:24:49;;;;;;;19.97;15.63;;;;;;;;;;5073920;28;20231;-52
2022/03/16 07:27:15;;;;;;;22.93;16.30;;;;;;;;;;5074181;28;20227;-51
2022/03/16 07:29:41;;;;;;;21.30;16.40;;;;;;;;;;5074270;28;20214;-52
2022/03/16 07:32:09;;;;;;;23.60;17.43;;;;;;;;;;5073735;28;21184;-51
2022/03/16 07:34:35;;;;;;;24.47;17.67;;;;;;;;;;5074044;28;20203;-50
2022/03/16 07:37:01;;;;;;;23.30;17.63;;;;;;;;;;5073879;28;20843;-50
2022/03/16 07:39:27;;;;;;;25.23;18.13;;;;;;;;;;5073854;28;20979;-50
2022/03/16 07:41:53;;;;;;;22.90;18.20;;;;;;;;;;5073300;28;20203;-51
2022/03/16 07:44:19;;;;;;;23.07;17.90;;;;;;;;;;5073812;28;20195;-51
2022/03/16 07:46:45;;;;;;;25.47;18.93;;;;;;;;;;5073787;28;20275;-52
2022/03/16 07:49:12;;;;;;;22.37;18.97;;;;;;;;;;5073621;28;20614;-52
2022/03/16 07:51:38;;;;;;;29.73;17.27;;;;;;;;;;5073566;28;20437;-52
2022/03/16 07:54:04;;;;;;;27.60;17.47;;;;;;;;;;5073536;28;20438;-52
2022/03/16 07:56:30;;;;;;;26.63;17.50;;;;;;;;;;5073683;28;20456;-51
2022/03/16 07:58:58;;;;;;;24.17;16.20;;;;;;;;;;5073644;28;20215;-51
2022/03/16 08:01:24;;;;;;;21.37;16.93;;;;;;;;;;5073175;28;20452;-52
2022/03/16 08:03:50;;;;;;;22.07;15.80;;;;;;;;;;5073440;28;20465;-52
2022/03/16 08:06:17;;;;;;;22.13;17.87;;;;;;;;;;5073113;28;20879;-51
2022/03/16 08:08:43;;;;;;;22.87;17.70;;;;;;;;;;5073495;28;20192;-52
2022/03/16 08:11:09;;;;;;;22.80;18.83;;;;;;;;;;5073149;28;20464;-52
2022/03/16 08:13:38;;;;;;;24.57;18.27;;;;;;;;;;5073047;28;20207;-52
2022/03/16 08:16:05;;;;;;;23.37;18.83;;;;;;;;;;5073227;28;20211;-52
2022/03/16 08:18:31;;;;;;;24.03;19.40;;;;;;;;;;5072833;28;20453;-51
2022/03/16 08:20:57;;;;;;;23.97;18.50;;;;;;;;;;5072951;28;20532;-51
2022/03/16 08:23:24;;;;;;;24.47;18.47;;;;;;;;;;5072418;28;20523;-52
2022/03/16 08:25:50;;;;;;;23.17;19.70;;;;;;;;;;5073018;28;20813;-50
2022/03/16 08:28:16;;;;;;;26.50;19.80;;;;;;;;;;5072955;28;20445;-50
2022/03/16 08:30:42;;;;;;;26.60;19.43;;;;;;;;;;5072993;28;20603;-51
2022/03/16 08:33:08;;;;;;;25.70;20.57;;;;;;;;;;5072820;28;20673;-50
2022/03/16 08:35:34;;;;;;;24.67;19.77;;;;;;;;;;5072816;28;20441;-50
2022/03/16 08:38:00;;;;;;;20.00;16.30;;;;;;;;;;5072806;28;20199;-50
2022/03/16 08:40:28;;;;;;;22.80;19.17;;;;;;;;;;5072561;28;20640;-61
2022/03/16 08:42:54;;;;;;;23.13;19.17;;;;;;;;;;5072666;28;20211;-50
2022/03/16 08:45:20;;;;;;;22.00;18.60;;;;;;;;;;5072795;28;20209;-50
2022/03/16 08:47:46;;;;;;;26.73;20.23;;;;;;;;;;5072821;28;20205;-49
2022/03/16 08:50:12;;;;;;;27.70;20.97;;;;;;;;;;5072562;28;20219;-51
2022/03/16 08:52:38;;;;;;;23.23;19.70;;;;;;;;;;5071740;28;20670;-50
2022/03/16 08:55:05;;;;;;;24.87;20.43;;;;;;;;;;5072443;28;20188;-50
2022/03/16 08:57:32;;;;;;;27.03;22.30;;;;;;;;;;5072645;28;20223;-51
2022/03/16 08:59:58;;;;;;;28.77;21.73;;;;;;;;;;5072469;28;20230;-50
2022/03/16 09:02:24;;;;;;;29.43;21.43;;;;;;;;;;5072421;28;20199;-50
2022/03/16 09:04:52;;;;;;;22.73;19.33;;;;;;;;;;5072414;28;20253;-50
2022/03/16 09:07:18;;;;;;;24.97;21.43;;;;;;;;;;5072346;28;20220;-51
2022/03/16 09:09:44;;;;;;;26.10;21.47;;;;;;;;;;5072442;28;20681;-50
2022/03/16 09:12:11;;;;;;;26.53;22.10;;;;;;;;;;5072440;28;20199;-51
2022/03/16 09:14:38;;;;;;;27.67;21.90;;;;;;;;;;5071984;28;20202;-51
2022/03/16 09:17:05;;;;;;;27.73;22.97;;;;;;;;;;5072238;28;20206;-51
2022/03/16 09:19:31;;;;;;;29.13;21.37;;;;;;;;;;5072251;28;20284;-50
2022/03/16 09:22:00;;;;;;;27.90;21.73;;;;;;;;;;5072334;28;20204;-50
2022/03/16 09:24:26;;;;;;;26.17;20.17;;;;;;;;;;5071949;28;20251;-50
2022/03/16 09:26:54;;;;;;;26.90;22.70;;;;;;;;;;5072123;28;20203;-51
2022/03/16 09:29:20;;;;;;;27.40;22.07;;;;;;;;;;5070205;28;20179;-51
2022/03/16 09:31:47;;;;;;;28.60;20.63;;;;;;;;;;5071897;28;20310;-51
2022/03/16 09:34:14;;;;;;;27.00;21.77;;;;;;;;;;5072115;28;20602;-54
2022/03/16 09:36:42;;;;;;;26.67;20.20;;;;;;;;;;5071821;28;20226;-50
2022/03/16 09:39:08;;;;;;;27.53;21.67;;;;;;;;;;5071674;28;20277;-51
2022/03/16 09:41:36;;;;;;;29.13;21.70;;;;;;;;;;5071571;28;20203;-51
2022/03/16 09:44:03;;;;;;;26.97;20.77;;;;;;;;;;5071814;28;20731;-53
2022/03/16 09:46:29;;;;;;;26.37;19.80;;;;;;;;;;5071649;28;20206;-51
2022/03/16 09:48:57;;;;;;;22.90;18.37;;;;;;;;;;5071611;28;20278;-51
2022/03/16 09:51:23;;;;;;;30.80;19.37;;;;;;;;;;5071377;28;20211;-51
2022/03/16 09:53:49;;;;;;;23.63;18.03;;;;;;;;;;5071614;28;20301;-51
2022/03/16 09:56:15;;;;;;;19.97;15.63;;;;;;;;;;5071723;28;20769;-51
2022/03/16 09:58:44;;;;;;;22.80;15.83;;;;;;;;;;5071558;28;20199;-51
2022/03/16 10:01:10;;;;;;;19.53;14.67;;;;;;;;;;5071552;28;20202;-52
2022/03/16 10:03:36;;;;;;;17.47;14.43;;;;;;;;;;5069549;28;20286;-52
2022/03/16 10:06:06;;;;;;;19.33;14.50;;;;;;;;;;5075520;28;20688;-52
2022/03/16 10:08:34;;;;;;;17.07;13.73;;;;;;;;;;5075743;28;20203;-51
2022/03/16 10:13:49;;;;;;;17.17;13.27;;;;;;;;;;5075631;28;20680;-51
2022/03/16 10:16:15;;;;;;;15.20;11.57;;;;;;;;;;5075529;28;20199;-51
2022/03/16 10:18:41;;;;;;;14.27;11.37;;;;;;;;;;5075215;28;20248;-52
2022/03/16 10:21:09;;;;;;;15.80;12.13;;;;;;;;;;5075542;28;20219;-51
2022/03/16 10:23:35;;;;;;;16.67;11.47;;;;;;;;;;5074946;28;20243;-51
2022/03/16 10:26:03;;;;;;;16.33;11.67;;;;;;;;;;5075220;28;20650;-52
2022/03/16 10:28:30;;;;;;;15.47;12.37;;;;;;;;;;5075126;28;20204;-52
2022/03/16 10:30:57;;;;;;;15.73;12.40;;;;;;;;;;5075365;28;20282;-51
2022/03/16 10:33:25;;;;;;;20.47;12.57;;;;;;;;;;5075124;28;20206;-52
2022/03/16 10:35:55;;;;;;;14.53;12.40;;;;;;;;;;5075165;28;20192;-53
2022/03/16 10:38:22;;;;;;;18.53;12.47;;;;;;;;;;5075273;28;20504;-53
2022/03/16 10:40:49;;;;;;;16.90;12.20;;;;;;;;;;5075189;28;20223;-51
2022/03/16 10:48:59;;;;;;;17.90;12.63;;;;;;;;;;5074802;28;20191;-50
2022/03/16 10:51:25;;;;;;;16.90;12.60;;;;;;;;;;5074449;28;20206;-51
2022/03/16 10:53:53;;;;;;;15.43;12.63;;;;;;;;;;5074618;28;20244;-51
2022/03/16 10:56:19;;;;;;;14.37;12.20;;;;;;;;;;5074437;28;20230;-51
2022/03/16 10:58:46;;;;;;;14.63;11.83;;;;;;;;;;5074660;28;20229;-51
2022/03/16 11:01:12;;;;;;;17.23;12.70;;;;;;;;;;5074393;28;20654;-51
2022/03/16 11:03:40;;;;;;;16.50;12.73;;;;;;;;;;5074373;28;20196;-51
2022/03/16 11:06:08;;;;;;;18.47;13.57;;;;;;;;;;5074377;28;20245;-51
2022/03/16 11:08:36;;;;;;;16.97;12.80;;;;;;;;;;5074084;28;20204;-51
2022/03/16 11:13:49;;;;;;;15.97;12.20;;;;;;;;;;5074306;28;20266;-52
2022/03/16 11:16:20;;;;;;;17.60;12.20;;;;;;;;;;5073155;28;20218;-52
2022/03/16 11:18:48;;;;;;;14.70;11.53;;;;;;;;;;5072746;28;20219;-52
2022/03/16 11:21:15;;;;;;;15.33;12.30;;;;;;;;;;5074315;28;20203;-51
2022/03/16 11:26:34;;;;;;;14.90;12.23;;;;;;;;;;5074359;28;20277;-51
2022/03/16 11:29:05;;;;;;;14.07;11.83;;;;;;;;;;5074019;28;20207;-51
2022/03/16 11:31:32;;;;;;;15.23;10.87;;;;;;;;;;5074074;28;20199;-51
2022/03/16 11:33:59;;;;;;;13.93;11.30;;;;;;;;;;5074188;28;20274;-51
2022/03/16 11:36:30;;;;;;;13.40;10.83;;;;;;;;;;5074050;28;20210;-53
2022/03/16 11:38:57;;;;;;;11.87;10.60;;;;;;;;;;5074213;28;20230;-51
2022/03/16 11:41:25;;;;;;;14.40;10.93;;;;;;;;;;5073980;28;20634;-52
2022/03/16 11:44:01;;;;;;;13.67;11.13;;;;;;;;;;5073977;28;20192;-52
2022/03/16 11:46:28;;;;;;;12.93;9.80;;;;;;;;;;5073998;28;20204;-52
2022/03/16 11:48:56;;;;;;;13.03;9.70;;;;;;;;;;5073905;28;20199;-50
2022/03/16 11:51:24;;;;;;;13.77;10.67;;;;;;;;;;5073801;28;20203;-52
2022/03/16 11:54:09;;;;;;;15.33;10.57;;;;;;;;;;5073906;28;20257;-51
2022/03/16 11:56:53;;;;;;;14.47;10.70;;;;;;;;;;5073572;28;20571;-51
2022/03/16 11:59:31;;;;;;;17.90;10.87;;;;;;;;;;5073551;28;20281;-51
2022/03/16 12:02:15;;;;;;;12.43;10.60;;;;;;;;;;5073738;28;20237;-51
2022/03/16 12:04:42;;;;;;;14.47;10.97;;;;;;;;;;5063411;28;20200;-52
2022/03/16 12:07:10;;;;;;;14.07;10.77;;;;;;;;;;5073391;28;20665;-52
2022/03/16 12:09:40;;;;;;;13.60;11.30;;;;;;;;;;5073402;28;20276;-52
2022/03/16 12:15:00;;;;;;;16.03;11.43;;;;;;;;;;5073475;28;20267;-52
2022/03/16 12:17:26;;;;;;;14.27;10.60;;;;;;;;;;5073407;28;20286;-52
2022/03/16 12:20:09;;;;;;;16.17;9.93;;;;;;;;;;5073332;28;20230;-50
2022/03/16 12:22:37;;;;;;;13.93;10.53;;;;;;;;;;5073153;28;20196;-50
2022/03/16 12:25:17;;;;;;;13.80;9.40;;;;;;;;;;5072776;28;20243;-52
2022/03/16 12:30:37;;;;;;;11.50;9.73;;;;;;;;;;5073276;28;20218;-51
2022/03/16 12:33:04;;;;;;;12.00;9.70;;;;;;;;;;5073165;28;20337;-52
2022/03/16 12:35:35;;;;;;;12.73;9.80;;;;;;;;;;5072612;28;20212;-52
2022/03/16 12:38:01;;;;;;;12.87;10.13;;;;;;;;;;5073213;28;20188;-52
2022/03/16 12:40:29;;;;;;;12.43;9.87;;;;;;;;;;5072821;28;20233;-51
2022/03/16 12:42:56;;;;;;;12.37;10.17;;;;;;;;;;5064987;28;20226;-50
2022/03/16 12:45:25;;;;;;;13.90;9.97;;;;;;;;;;5072651;28;20200;-51
2022/03/16 12:47:58;;;;;;;11.57;9.30;;;;;;;;;;5072562;28;20216;-51
2022/03/16 12:50:27;;;;;;;11.97;9.43;;;;;;;;;;5072103;28;20235;-50
2022/03/16 12:52:53;;;;;;;10.77;8.50;;;;;;;;;;5072740;28;20341;-51
2022/03/16 12:55:19;;;;;;;11.57;9.17;;;;;;;;;;5072684;28;20196;-52
2022/03/16 12:57:50;;;;;;;11.50;9.00;;;;;;;;;;5072600;28;20730;-52
2022/03/16 13:00:17;;;;;;;14.90;9.60;;;;;;;;;;5072533;28;20227;-51
2022/03/16 13:02:44;;;;;;;11.70;9.60;;;;;;;;;;5072554;28;20207;-51
2022/03/16 13:05:11;;;;;;;12.77;9.50;;;;;;;;;;5072313;28;20218;-53
2022/03/16 13:07:38;;;;;;;11.13;9.67;;;;;;;;;;5072365;28;20203;-53
2022/03/16 13:10:05;;;;;;;12.63;9.40;;;;;;;;;;5072468;28;20222;-52
2022/03/16 13:12:31;;;;;;;11.27;8.67;;;;;;;;;;5072275;28;20606;-55
2022/03/16 13:14:58;;;;;;;11.53;9.13;;;;;;;;;;5072397;28;20218;-52
2022/03/16 13:17:24;;;;;;;11.70;8.90;;;;;;;;;;5072288;28;20203;-52
2022/03/16 13:19:55;;;;;;;11.47;9.13;;;;;;;;;;5071979;28;20235;-51
2022/03/16 13:22:23;;;;;;;12.40;9.30;;;;;;;;;;5071790;28;20202;-53
2022/03/16 13:24:50;;;;;;;12.87;10.57;;;;;;;;;;5071613;28;20248;-53
2022/03/16 13:27:17;;;;;;;14.33;10.50;;;;;;;;;;5070939;28;20537;-52
2022/03/16 13:29:44;;;;;;;15.00;10.83;;;;;;;;;;5071885;28;20207;-52
2022/03/16 13:32:11;;;;;;;14.37;9.67;;;;;;;;;;5071778;28;20206;-53
2022/03/16 13:34:38;;;;;;;13.50;10.60;;;;;;;;;;5071659;28;20191;-52
2022/03/16 13:37:19;;;;;;;13.33;9.00;;;;;;;;;;5071669;28;20249;-52
2022/03/16 13:39:56;;;;;;;11.57;8.43;;;;;;;;;;5071182;28;20223;-51
2022/03/16 13:42:26;;;;;;;12.53;9.23;;;;;;;;;;5071524;28;20233;-51
2022/03/16 13:44:53;;;;;;;14.20;9.60;;;;;;;;;;5071593;28;20200;-52
2022/03/16 13:47:22;;;;;;;12.03;8.90;;;;;;;;;;5071516;28;20199;-52
2022/03/16 13:49:49;;;;;;;15.77;9.50;;;;;;;;;;5071755;28;20720;-53
2022/03/16 13:52:18;;;;;;;11.93;9.53;;;;;;;;;;5071751;28;20205;-53
2022/03/16 13:54:45;;;;;;;12.00;9.33;;;;;;;;;;5071660;28;20203;-54
2022/03/16 13:57:13;;;;;;;13.20;10.10;;;;;;;;;;5071777;28;20220;-54
2022/03/16 13:59:43;;;;;;;11.60;8.87;;;;;;;;;;5071393;28;20234;-52
2022/03/16 14:02:13;;;;;;;12.73;9.37;;;;;;;;;;5072095;28;20200;-53
2022/03/16 14:04:40;;;;;;;12.80;9.33;;;;;;;;;;5071936;28;20205;-52
2022/03/16 14:07:20;;;;;;;13.70;8.93;;;;;;;;;;5071672;28;20204;-53
2022/03/16 14:09:46;;;;;;;11.37;8.70;;;;;;;;;;5071891;28;20196;-53
2022/03/16 14:12:15;;;;;;;11.57;8.67;;;;;;;;;;5070174;28;20196;-53
2022/03/16 14:14:45;;;;;;;14.00;8.90;;;;;;;;;;5071555;28;20257;-53
2022/03/16 14:17:11;;;;;;;16.37;9.30;;;;;;;;;;5071605;28;20692;-53
2022/03/16 14:19:38;;;;;;;10.20;7.97;;;;;;;;;;5071550;28;20246;-53
2022/03/16 14:22:05;;;;;;;10.43;8.17;;;;;;;;;;5071640;28;20203;-53
2022/03/16 14:24:33;;;;;;;11.27;8.63;;;;;;;;;;5071009;28;20243;-53
2022/03/16 14:27:15;;;;;;;10.80;8.23;;;;;;;;;;5071621;28;20203;-53
2022/03/16 14:29:43;;;;;;;12.60;8.63;;;;;;;;;;5071657;28;20199;-52
2022/03/16 14:32:09;;;;;;;12.47;8.33;;;;;;;;;;5071388;28;20207;-52
2022/03/16 14:34:35;;;;;;;10.83;8.30;;;;;;;;;;5071431;28;20203;-53
2022/03/16 14:37:01;;;;;;;11.80;8.53;;;;;;;;;;5071271;28;20219;-53
2022/03/16 14:39:27;;;;;;;11.17;8.30;;;;;;;;;;5071415;28;20716;-53